Unser Platzwetter:

(um das Bild zu aktualisieren oder bei unvollständig geladenem Bild den Reload-Button des Browsers drücken)

[Quelle: ADDS]
METAR
ETNN 081620Z 36006KT 9999 FEW080 35/10 Q1017 BLU+ =
TAF
SR / SS: 04:11 / 19:07 UTC (Vettweiss-Soller 2020-08-08)

Aktuelle Windrichtung in Relation zu unserer Bahn:

 

Aktuelle Dichtehöhe bei uns am Platz: 2.909 ft.

PPR beachten

50 44 51 N / 06 34 01 E
525 ft
14/32 Gras 360 m
136.090 MHz
02424/901444

Kontakt:

LSG Gertrundenhof e.V.
c/o Rolf Viehs
Scheffensweg 33
52393 Hürtgenwald-Gey
02429/908222
0178/8845333

in Lokalzeit:
06:09
21:08